1993 LIN (1993029S11178)


On this page: IBTrACS data - Map and Plots - Positions - Intensities - Original source data

Summary

Start Jan 29
End Feb 5
Basin SP
LMI 90 kt
Sources jtwc_sh
wellington
neumann
In WMO? Yes
Previous storm 1993 HSK1493 (SP)
Previous in basin 1993 HSK1493 (SP)
Concurrent storms 1993 EDWINA (SI)
1993 LENA (SI)
1993 HSK1493 (SP)
1993 LIN (SP)
1993 OLIVER (SP)
1993 MICK (SP)
Next in basin 1993 OLIVER (SP)
Next storm 1993 OLIVER (SP)

top of page IBTrACS Data: File Access

top of page HURSAT Data: File Access

Image of storm

top of page Plots:

Map of storm track will not appear if FTP is down
Time series of cyclone Maximum Sustained Wind will not appear if FTP is down
Time series of cyclone Minimum Central Pressure will not appear if FTP is down

top of page Track Data:Position

jtwc_sh wellington neumann
Date Lat Lon Lat Lon Lat Lon
1993-01-29 00:00:00 -11.0 178.1 -11.0 178.1
1993-01-29 06:00:00 -11.0 179.0 -11.0 179.0
1993-01-29 12:00:00 -11.1 180.0 -11.1 180.0
1993-01-29 18:00:00 -11.2 -179.0 -11.2 -179.0
1993-01-30 00:00:00 -11.3 -178.0 -11.3 -178.0
1993-01-30 06:00:00 -11.4 -176.9 -11.4 -176.9
1993-01-30 12:00:00 -11.7 -175.9 -11.7 -175.9
1993-01-30 18:00:00 -12.1 -174.8 -12.1 -174.8
1993-01-31 00:00:00 -12.6 -173.8 -12.5 -174.0 -12.6 -173.8
1993-01-31 06:00:00 -13.2 -173.0 -13.2 -173.4 -13.2 -173.0
1993-01-31 12:00:00 -13.8 -172.0 -14.0 -172.5 -13.8 -172.0
1993-01-31 18:00:00 -14.6 -171.1 -14.8 -171.4 -14.6 -171.1
1993-02-01 00:00:00 -15.5 -170.5 -15.5 -170.5 -15.5 -170.5
1993-02-01 06:00:00 -16.5 -170.0 -16.7 -170.1 -16.5 -170.0
1993-02-01 12:00:00 -17.4 -169.5 -17.8 -169.0 -17.4 -169.5
1993-02-01 18:00:00 -18.3 -168.9 -18.5 -168.2 -18.3 -168.9
1993-02-02 00:00:00 -19.2 -168.2 -19.3 -167.5 -19.2 -168.2
1993-02-02 06:00:00 -20.0 -167.4 -19.9 -167.1 -20.0 -167.4
1993-02-02 12:00:00 -20.6 -166.7 -20.4 -166.8 -20.6 -166.7
1993-02-02 18:00:00 -21.1 -165.9 -20.8 -166.5 -21.1 -165.9
1993-02-03 00:00:00 -21.5 -165.3 -21.3 -166.3 -21.5 -165.3
1993-02-03 06:00:00 -22.0 -165.0 -21.6 -166.3 -22.0 -165.0
1993-02-03 12:00:00 -22.5 -165.0 -22.0 -166.1 -22.5 -165.0
1993-02-03 18:00:00 -22.9 -165.1 -22.5 -166.1 -22.9 -165.1
1993-02-04 00:00:00 -23.2 -165.3 -23.3 -166.2 -23.2 -165.3
jtwc_sh wellington neumann
1993-02-04 06:00:00 -24.0 -166.3
1993-02-04 12:00:00 -24.8 -166.4
1993-02-04 18:00:00 -26.0 -166.8
1993-02-05 00:00:00 -27.5 -167.5

top of pageTrack Data:Intensity

jtwc_sh wellington neumann
Date Wind Pres Wind Pres Wind Pres
1993-01-29 00:00:00 15. 15.
1993-01-29 06:00:00 15. 15.
1993-01-29 12:00:00 20. 20.
1993-01-29 18:00:00 20. 20.
1993-01-30 00:00:00 20. 20.
1993-01-30 06:00:00 25. 25.
1993-01-30 12:00:00 25. 25.
1993-01-30 18:00:00 30. 30.
1993-01-31 00:00:00 35. 30. 997. 35.
1993-01-31 06:00:00 40. 35. 995. 40.
1993-01-31 12:00:00 50. 45. 987. 50.
1993-01-31 18:00:00 60. 55. 980. 60.
1993-02-01 00:00:00 65. 60. 975. 65.
1993-02-01 06:00:00 70. 60. 975. 70.
1993-02-01 12:00:00 75. 65. 970. 75.
1993-02-01 18:00:00 85. 65. 970. 85.
1993-02-02 00:00:00 90. 65. 970. 90.
1993-02-02 06:00:00 90. 65. 970. 90.
1993-02-02 12:00:00 85. 65. 970. 85.
1993-02-02 18:00:00 70. 65. 970. 70.
1993-02-03 00:00:00 55. 60. 975. 55.
1993-02-03 06:00:00 45. 55. 980. 45.
1993-02-03 12:00:00 40. 55. 980. 40.
1993-02-03 18:00:00 35. 50. 985. 35.
1993-02-04 00:00:00 30. 45. 987. 30.
jtwc_sh wellington neumann
1993-02-04 06:00:00 45. 987.
1993-02-04 12:00:00 40. 990.
1993-02-04 18:00:00 35. 995.
1993-02-05 00:00:00 30. 997.

top of page Links to source data

Source Source file Format
jtwc_sh bsh151993.txt ATCF
wellington TC_BT_1967_2006.csv:Line=4400:LIN Text table
neumann tracks.sh:Storm=967:LIN:BSH151993:JTWC&NZeal19027 HURDAT